createdAt,value
2023-05-02T00:01:11.856Z,15.00
2023-05-02T00:03:42.508Z,15.40
2023-05-02T00:06:12.299Z,15.50
2023-05-02T00:08:41.116Z,15.63
2023-05-02T00:11:09.762Z,17.13
2023-05-02T00:13:38.457Z,15.30
2023-05-02T00:16:09.395Z,16.03
2023-05-02T00:18:38.141Z,15.87
2023-05-02T00:21:07.432Z,15.27
2023-05-02T00:23:36.271Z,13.63
2023-05-02T00:26:04.986Z,12.80
2023-05-02T00:28:34.239Z,14.37
2023-05-02T00:31:02.947Z,14.60
2023-05-02T00:33:33.205Z,20.10
2023-05-02T00:36:02.171Z,21.00
2023-05-02T00:38:31.190Z,23.83
2023-05-02T00:40:59.935Z,26.07
2023-05-02T00:43:32.205Z,26.20
2023-05-02T00:46:00.915Z,21.73
2023-05-02T00:48:30.174Z,18.73
2023-05-02T00:51:01.020Z,14.07
2023-05-02T00:53:29.997Z,15.43
2023-05-02T00:55:59.725Z,16.90
2023-05-02T00:58:31.144Z,18.93
2023-05-02T01:01:13.788Z,15.00
2023-05-02T01:03:51.392Z,11.23
2023-05-02T01:06:39.194Z,11.63
2023-05-02T01:09:22.495Z,10.57
2023-05-02T01:11:58.726Z,11.87
2023-05-02T01:14:30.789Z,11.80
2023-05-02T01:17:00.931Z,10.53
2023-05-02T01:19:34.768Z,10.97
2023-05-02T01:22:08.336Z,9.23
2023-05-02T01:24:43.143Z,10.40
2023-05-02T01:27:19.530Z,9.03
2023-05-02T01:29:52.040Z,8.53
2023-05-02T01:32:22.441Z,9.23
2023-05-02T01:34:51.808Z,12.10
2023-05-02T01:37:20.896Z,22.63
2023-05-02T01:39:51.144Z,15.30
2023-05-02T01:42:21.881Z,13.63
2023-05-02T01:44:52.415Z,11.83
2023-05-02T01:47:21.784Z,9.73
2023-05-02T01:49:50.098Z,9.23
2023-05-02T01:52:20.878Z,9.33
2023-05-02T01:54:49.889Z,8.33
2023-05-02T01:57:20.446Z,8.77
2023-05-02T01:59:49.659Z,9.10
2023-05-02T02:02:20.722Z,7.47
2023-05-02T02:04:50.695Z,10.73
2023-05-02T02:07:19.353Z,10.40
2023-05-02T02:09:48.131Z,9.33
2023-05-02T02:12:19.450Z,9.40
2023-05-02T02:14:52.681Z,9.30
2023-05-02T02:17:28.169Z,9.30
2023-05-02T02:19:58.086Z,10.77
2023-05-02T02:22:28.604Z,9.47
2023-05-02T02:24:58.573Z,8.77
2023-05-02T02:27:27.412Z,10.67
2023-05-02T02:29:57.292Z,9.30
2023-05-02T02:32:27.692Z,9.87
2023-05-02T02:34:56.498Z,9.20
2023-05-02T02:37:28.133Z,9.57
2023-05-02T02:40:01.823Z,8.80
2023-05-02T02:42:41.519Z,10.57
2023-05-02T02:45:20.688Z,9.87
2023-05-02T02:47:56.454Z,8.50
2023-05-02T02:50:31.720Z,8.23
2023-05-02T02:53:02.216Z,8.63
2023-05-02T02:55:39.813Z,10.30
2023-05-02T02:58:18.958Z,10.00
2023-05-02T03:00:49.407Z,15.60
2023-05-02T03:03:20.589Z,13.20
2023-05-02T03:05:49.613Z,13.47
2023-05-02T03:08:18.251Z,13.10
2023-05-02T03:10:46.816Z,13.63
2023-05-02T03:13:15.789Z,13.80
2023-05-02T03:16:17.841Z,13.37
2023-05-02T03:18:48.380Z,12.03
2023-05-02T03:21:17.537Z,11.43
2023-05-02T03:23:46.511Z,9.20
2023-05-02T03:26:15.054Z,9.73
2023-05-02T03:28:46.781Z,9.33
2023-05-02T03:31:16.393Z,8.57
2023-05-02T03:33:46.620Z,9.60
2023-05-02T03:36:17.230Z,9.77
2023-05-02T03:38:46.269Z,8.87
2023-05-02T03:41:15.348Z,11.10
2023-05-02T03:43:44.438Z,11.57
2023-05-02T03:46:15.605Z,12.63
2023-05-02T03:48:46.712Z,12.23
2023-05-02T03:51:17.013Z,13.70
2023-05-02T03:53:46.104Z,11.97
2023-05-02T03:56:20.530Z,12.80
2023-05-02T03:58:50.827Z,13.27
2023-05-02T04:01:19.744Z,12.90
2023-05-02T04:03:48.401Z,13.60
2023-05-02T04:06:18.618Z,15.17
2023-05-02T04:08:47.583Z,13.33
2023-05-02T04:11:17.312Z,14.10
2023-05-02T04:13:50.025Z,12.60
2023-05-02T04:16:20.575Z,13.37
2023-05-02T04:18:50.069Z,13.43
2023-05-02T04:21:20.179Z,14.40
2023-05-02T04:23:48.875Z,13.87
2023-05-02T04:26:17.707Z,18.13
2023-05-02T04:28:46.870Z,17.50
2023-05-02T04:31:15.942Z,17.20
2023-05-02T04:33:45.720Z,15.30
2023-05-02T04:36:14.481Z,15.80
2023-05-02T04:38:44.822Z,18.07
2023-05-02T04:41:13.406Z,16.50
2023-05-02T04:43:42.535Z,13.80
2023-05-02T04:46:14.111Z,14.40
2023-05-02T04:48:42.940Z,15.40
2023-05-02T04:51:11.795Z,15.00
2023-05-02T04:53:40.344Z,14.90
2023-05-02T04:56:11.647Z,15.13
2023-05-02T04:58:40.357Z,15.73
2023-05-02T05:01:09.286Z,13.70
2023-05-02T05:03:38.237Z,15.70
2023-05-02T05:06:07.495Z,15.33
2023-05-02T05:08:36.329Z,16.20
2023-05-02T05:11:05.368Z,14.20
2023-05-02T05:13:35.567Z,16.10
2023-05-02T05:16:04.257Z,15.93
2023-05-02T05:18:40.625Z,17.33
2023-05-02T05:21:10.017Z,17.70
2023-05-02T05:23:39.709Z,15.90
2023-05-02T05:26:12.181Z,16.27
2023-05-02T05:28:42.309Z,16.70
2023-05-02T05:31:13.037Z,15.90
2023-05-02T05:33:45.094Z,16.83
2023-05-02T05:36:15.268Z,17.07
2023-05-02T05:38:43.957Z,23.93
2023-05-02T05:41:12.911Z,21.60
2023-05-02T05:43:42.924Z,19.60
2023-05-02T05:46:11.384Z,16.77
2023-05-02T05:48:39.943Z,17.40
2023-05-02T05:51:08.981Z,18.63
2023-05-02T05:53:37.581Z,17.40
2023-05-02T05:56:12.902Z,19.20
2023-05-02T05:58:44.406Z,18.90
2023-05-02T06:01:13.392Z,15.83
2023-05-02T06:03:41.966Z,16.23
2023-05-02T06:06:11.286Z,15.33
2023-05-02T06:08:39.749Z,14.43
2023-05-02T06:11:11.882Z,15.23
2023-05-02T06:13:40.678Z,13.13
2023-05-02T06:16:11.302Z,12.53
2023-05-02T06:18:39.794Z,13.60
2023-05-02T06:21:09.410Z,12.27
2023-05-02T06:23:38.162Z,12.97
2023-05-02T06:26:07.205Z,12.63
2023-05-02T06:28:35.734Z,11.00
2023-05-02T06:31:06.136Z,11.00
2023-05-02T06:34:01.463Z,11.00
2023-05-02T06:36:31.310Z,10.07
2023-05-02T06:39:02.747Z,10.03
2023-05-02T06:41:33.973Z,11.10
2023-05-02T06:44:02.914Z,11.00
2023-05-02T06:46:32.368Z,10.07
2023-05-02T06:49:02.155Z,11.47
2023-05-02T06:51:32.132Z,10.03
2023-05-02T06:54:03.301Z,9.60
2023-05-02T06:56:32.625Z,9.43
2023-05-02T06:59:01.219Z,9.50
2023-05-02T07:01:30.267Z,10.63
2023-05-02T07:03:59.024Z,12.13
2023-05-02T07:06:29.287Z,9.60
2023-05-02T07:08:57.939Z,9.10
2023-05-02T07:11:28.358Z,10.10
2023-05-02T07:13:57.514Z,9.57
2023-05-02T07:16:26.547Z,9.00
2023-05-02T07:18:55.492Z,9.50
2023-05-02T07:21:24.364Z,10.20
2023-05-02T07:23:55.788Z,8.87
2023-05-02T07:26:25.780Z,9.80
2023-05-02T07:28:54.842Z,11.07
2023-05-02T07:31:23.941Z,8.30
2023-05-02T07:33:52.754Z,9.03
2023-05-02T07:36:22.090Z,10.13
2023-05-02T07:38:50.987Z,13.67
2023-05-02T07:41:21.530Z,9.27
2023-05-02T07:43:50.123Z,10.27
2023-05-02T07:46:18.966Z,9.17
2023-05-02T07:48:47.516Z,9.53
2023-05-02T07:51:16.428Z,8.50
2023-05-02T07:53:45.319Z,9.57
2023-05-02T07:56:14.329Z,10.93
2023-05-02T07:58:44.568Z,12.00
2023-05-02T08:01:13.703Z,9.87
2023-05-02T08:03:42.514Z,8.63
2023-05-02T08:06:11.274Z,9.17
2023-05-02T08:08:42.367Z,8.40
2023-05-02T08:11:11.119Z,9.87
2023-05-02T08:13:39.365Z,11.10
2023-05-02T08:16:09.747Z,10.97
2023-05-02T08:18:38.637Z,10.17
2023-05-02T08:21:07.878Z,11.30
2023-05-02T08:23:37.631Z,11.47
2023-05-02T08:26:07.040Z,11.50
2023-05-02T08:28:35.845Z,10.90
2023-05-02T08:31:05.029Z,10.27
2023-05-02T08:33:35.316Z,13.10
2023-05-02T08:36:12.593Z,9.20
2023-05-02T08:38:41.059Z,9.30
2023-05-02T08:41:13.275Z,7.60
2023-05-02T08:43:42.016Z,10.83
2023-05-02T08:46:12.406Z,10.53
2023-05-02T08:48:44.168Z,10.67
2023-05-02T08:51:15.306Z,9.00
2023-05-02T08:53:44.559Z,11.17
2023-05-02T08:56:14.395Z,10.03
2023-05-02T08:58:43.085Z,9.87
2023-05-02T09:01:15.590Z,9.10
2023-05-02T09:03:47.657Z,9.50
2023-05-02T09:06:18.143Z,9.60
2023-05-02T09:08:49.078Z,9.80
2023-05-02T09:11:19.020Z,12.93
2023-05-02T09:13:49.017Z,11.10
2023-05-02T09:16:18.265Z,9.63
2023-05-02T09:18:50.054Z,8.83
2023-05-02T09:21:21.187Z,12.50
2023-05-02T09:23:51.100Z,9.97
2023-05-02T09:26:21.375Z,9.03
2023-05-02T09:28:50.747Z,9.37
2023-05-02T09:31:43.635Z,13.00
2023-05-02T09:34:12.207Z,11.10
2023-05-02T09:36:42.436Z,10.57
2023-05-02T09:39:13.737Z,11.40
2023-05-02T09:41:43.325Z,13.27
2023-05-02T09:44:13.681Z,11.00
2023-05-02T09:46:43.118Z,14.30
2023-05-02T09:49:14.916Z,12.10
2023-05-02T09:51:44.382Z,11.50
2023-05-02T09:54:13.092Z,13.13
2023-05-02T09:56:56.739Z,9.93
2023-05-02T09:59:26.226Z,12.40
2023-05-02T10:01:58.909Z,11.67
2023-05-02T10:04:30.536Z,11.73
2023-05-02T10:07:00.979Z,11.70
2023-05-02T10:09:32.811Z,11.97
2023-05-02T10:12:05.369Z,11.77
2023-05-02T10:14:39.419Z,12.47
2023-05-02T10:17:14.275Z,11.10
2023-05-02T10:19:51.589Z,12.30
2023-05-02T10:22:21.535Z,10.93
2023-05-02T10:24:50.835Z,10.50
2023-05-02T10:27:20.465Z,9.03
2023-05-02T10:29:49.611Z,11.50
2023-05-02T10:32:19.837Z,11.53
2023-05-02T10:34:50.557Z,10.70
2023-05-02T10:37:20.053Z,11.30
2023-05-02T10:39:48.744Z,10.30
2023-05-02T10:42:18.621Z,10.80
2023-05-02T10:44:47.237Z,11.33
2023-05-02T10:47:23.412Z,12.63
2023-05-02T10:49:54.565Z,12.37
2023-05-02T10:52:31.850Z,12.40
2023-05-02T10:55:16.550Z,13.80
2023-05-02T10:58:24.790Z,14.03
2023-05-02T11:00:53.413Z,12.37
2023-05-02T11:03:55.671Z,15.17
2023-05-02T11:06:26.540Z,14.60
2023-05-02T11:08:55.654Z,14.37
2023-05-02T11:11:48.607Z,14.00
2023-05-02T11:14:51.131Z,14.40
2023-05-02T11:17:21.289Z,13.67
2023-05-02T11:20:29.486Z,14.43
2023-05-02T11:23:01.318Z,13.07
2023-05-02T11:25:40.190Z,18.20
2023-05-02T11:28:10.698Z,18.90
2023-05-02T11:30:48.907Z,20.20
2023-05-02T11:33:20.303Z,15.70
2023-05-02T11:35:50.384Z,16.30
2023-05-02T11:38:23.798Z,17.97
2023-05-02T11:40:58.387Z,17.50
2023-05-02T11:43:30.814Z,18.10
2023-05-02T11:46:03.766Z,14.90
2023-05-02T11:48:32.884Z,17.37
2023-05-02T11:51:05.527Z,15.10
2023-05-02T11:53:36.631Z,15.40
2023-05-02T11:56:06.781Z,14.40
2023-05-02T11:58:35.480Z,14.43
2023-05-02T12:01:15.110Z,15.00
2023-05-02T12:03:44.198Z,16.03
2023-05-02T12:06:15.499Z,16.50
2023-05-02T12:08:46.403Z,17.80
2023-05-02T12:11:15.893Z,17.27
2023-05-02T12:13:50.931Z,17.93
2023-05-02T12:16:20.319Z,17.43
2023-05-02T12:18:49.557Z,16.50
2023-05-02T12:21:19.299Z,18.90
2023-05-02T12:23:49.646Z,15.87
2023-05-02T12:26:19.563Z,15.90
2023-05-02T12:28:51.977Z,14.33
2023-05-02T12:31:21.125Z,13.77
2023-05-02T12:33:51.204Z,14.20
2023-05-02T12:36:20.652Z,14.30
2023-05-02T12:38:55.231Z,12.57
2023-05-02T12:41:34.462Z,14.10
2023-05-02T12:44:03.123Z,13.53
2023-05-02T12:46:33.127Z,13.70
2023-05-02T12:49:06.744Z,14.60
2023-05-02T12:51:36.821Z,14.60
2023-05-02T12:54:08.378Z,14.93
2023-05-02T12:56:44.396Z,13.30
2023-05-02T12:59:28.148Z,11.57
2023-05-02T13:01:56.590Z,12.93
2023-05-02T13:04:36.643Z,13.23
2023-05-02T13:07:05.730Z,13.00
2023-05-02T13:09:35.919Z,19.50
2023-05-02T13:12:05.145Z,17.07
2023-05-02T13:14:34.479Z,18.50
2023-05-02T13:17:04.356Z,14.90
2023-05-02T13:19:33.771Z,13.50
2023-05-02T13:22:02.402Z,13.07
2023-05-02T13:24:31.256Z,15.10
2023-05-02T13:27:02.134Z,13.03
2023-05-02T13:29:31.833Z,12.20
2023-05-02T13:32:02.860Z,12.70
2023-05-02T13:34:31.781Z,17.13
2023-05-02T13:37:01.109Z,20.07
2023-05-02T13:39:30.197Z,16.10
2023-05-02T13:42:03.649Z,12.40
2023-05-02T13:44:33.546Z,13.87
2023-05-02T13:47:02.007Z,13.87
2023-05-02T13:49:30.855Z,12.57
2023-05-02T13:51:59.825Z,17.80
2023-05-02T13:54:28.620Z,22.63
2023-05-02T13:56:57.979Z,20.73
2023-05-02T13:59:28.400Z,20.40
2023-05-02T14:01:57.000Z,16.70
2023-05-02T14:04:25.470Z,15.30
2023-05-02T14:06:54.878Z,15.50
2023-05-02T14:09:23.680Z,13.90
2023-05-02T14:11:52.331Z,15.10
2023-05-02T14:14:20.993Z,17.83
2023-05-02T14:16:51.694Z,21.37
2023-05-02T14:19:20.469Z,23.50
2023-05-02T14:21:49.541Z,19.70
2023-05-02T14:24:19.752Z,16.97
2023-05-02T14:26:48.625Z,16.57
2023-05-02T14:29:18.438Z,17.40
2023-05-02T14:31:47.551Z,15.37
2023-05-02T14:34:17.466Z,14.30
2023-05-02T14:36:46.300Z,15.80
2023-05-02T14:39:15.121Z,21.20
2023-05-02T14:41:44.112Z,16.67
2023-05-02T14:44:13.155Z,14.40
2023-05-02T14:46:42.467Z,18.30
2023-05-02T14:49:11.213Z,14.60
2023-05-02T14:51:41.332Z,14.07
2023-05-02T14:54:10.263Z,17.03
2023-05-02T14:56:43.515Z,15.60
2023-05-02T14:59:12.735Z,15.07
2023-05-02T15:01:41.431Z,15.50
2023-05-02T15:04:10.840Z,15.80
2023-05-02T15:06:41.973Z,20.03
2023-05-02T15:09:12.504Z,14.10
2023-05-02T15:11:41.491Z,18.67
2023-05-02T15:14:10.808Z,16.43
2023-05-02T15:16:39.919Z,13.70
2023-05-02T15:19:08.673Z,14.47
2023-05-02T15:21:37.882Z,13.13
2023-05-02T15:24:08.608Z,15.00
2023-05-02T15:26:38.821Z,13.70
2023-05-02T15:29:07.616Z,15.47
2023-05-02T15:31:37.460Z,13.60
2023-05-02T15:34:06.184Z,13.87
2023-05-02T15:36:37.730Z,13.17
2023-05-02T15:39:07.968Z,13.50
2023-05-02T15:41:36.960Z,14.40
2023-05-02T15:44:05.711Z,15.50
2023-05-02T15:46:35.069Z,14.47
2023-05-02T15:49:03.829Z,14.20
2023-05-02T15:51:33.024Z,12.97
2023-05-02T15:54:02.792Z,15.83
2023-05-02T15:56:47.753Z,15.50
2023-05-02T15:59:16.902Z,14.23
2023-05-02T16:01:45.821Z,15.97
2023-05-02T16:04:15.817Z,15.10
2023-05-02T16:06:44.531Z,13.90
2023-05-02T16:09:14.181Z,14.10
2023-05-02T16:11:43.106Z,13.53
2023-05-02T16:14:13.620Z,14.73
2023-05-02T16:16:42.448Z,14.20
2023-05-02T16:19:13.755Z,15.50
2023-05-02T16:21:43.561Z,15.07
2023-05-02T16:24:12.412Z,16.57
2023-05-02T16:26:41.378Z,14.83
2023-05-02T16:29:09.685Z,13.17
2023-05-02T16:31:42.963Z,10.90
2023-05-02T16:34:13.090Z,14.07
2023-05-02T16:36:42.759Z,13.37
2023-05-02T16:39:12.248Z,13.53
2023-05-02T16:41:41.674Z,12.40
2023-05-02T16:44:10.639Z,14.10
2023-05-02T16:46:41.800Z,15.80
2023-05-02T16:49:10.539Z,15.90
2023-05-02T16:51:39.956Z,14.63
2023-05-02T16:54:09.603Z,16.03
2023-05-02T16:56:39.130Z,16.40
2023-05-02T16:59:09.319Z,16.10
2023-05-02T17:01:38.103Z,15.10
2023-05-02T17:04:09.222Z,15.60
2023-05-02T17:06:38.060Z,16.67
2023-05-02T17:09:07.648Z,14.93
2023-05-02T17:11:36.408Z,14.47
2023-05-02T17:14:05.099Z,14.87
2023-05-02T17:16:34.192Z,13.83
2023-05-02T17:19:03.615Z,15.33
2023-05-02T17:21:34.521Z,14.97
2023-05-02T17:24:03.572Z,15.47
2023-05-02T17:26:32.600Z,15.63
2023-05-02T17:29:01.658Z,14.23
2023-05-02T17:31:30.724Z,14.40
2023-05-02T17:33:59.614Z,13.33
2023-05-02T17:36:28.261Z,13.23
2023-05-02T17:38:59.099Z,11.57
2023-05-02T17:41:31.051Z,11.87
2023-05-02T17:44:00.396Z,13.13
2023-05-02T17:46:29.146Z,12.17
2023-05-02T17:48:58.410Z,12.10
2023-05-02T17:51:27.203Z,12.60
2023-05-02T17:53:57.591Z,13.50
2023-05-02T17:56:26.997Z,12.37
2023-05-02T17:58:56.571Z,13.80
2023-05-02T18:01:25.607Z,12.13
2023-05-02T18:03:55.111Z,12.77
2023-05-02T18:06:23.909Z,14.77
2023-05-02T18:08:53.229Z,14.50
2023-05-02T18:11:26.946Z,12.40
2023-05-02T18:13:56.125Z,11.20
2023-05-02T18:16:25.168Z,11.20
2023-05-02T18:18:54.046Z,10.53
2023-05-02T18:21:23.196Z,9.93
2023-05-02T18:23:52.649Z,11.40
2023-05-02T18:26:23.660Z,13.10
2023-05-02T18:28:54.371Z,13.73
2023-05-02T18:31:24.112Z,12.20
2023-05-02T18:33:55.101Z,12.90
2023-05-02T18:36:27.774Z,12.73
2023-05-02T18:38:56.898Z,18.27
2023-05-02T18:41:27.140Z,14.17
2023-05-02T18:43:58.668Z,15.17
2023-05-02T18:46:28.815Z,12.70
2023-05-02T18:48:57.753Z,13.93
2023-05-02T18:51:29.362Z,13.77
2023-05-02T18:53:58.029Z,13.80
2023-05-02T18:56:28.564Z,12.93
2023-05-02T18:58:57.927Z,12.60
2023-05-02T19:01:27.006Z,13.37
2023-05-02T19:03:56.684Z,13.27
2023-05-02T19:06:26.427Z,12.40
2023-05-02T19:08:55.289Z,13.10
2023-05-02T19:11:23.618Z,13.20
2023-05-02T19:13:56.968Z,12.17
2023-05-02T19:16:44.260Z,12.30
2023-05-02T19:19:13.086Z,14.23
2023-05-02T19:21:41.761Z,13.13
2023-05-02T19:24:10.923Z,12.70
2023-05-02T19:26:39.961Z,12.97
2023-05-02T19:29:10.037Z,13.00
2023-05-02T19:31:44.273Z,12.57
2023-05-02T19:34:13.150Z,14.17
2023-05-02T19:36:42.702Z,11.97
2023-05-02T19:39:13.478Z,12.77
2023-05-02T19:41:42.907Z,11.10
2023-05-02T19:44:13.304Z,11.43
2023-05-02T19:46:42.327Z,12.93
2023-05-02T19:49:11.113Z,11.40
2023-05-02T19:51:40.042Z,10.67
2023-05-02T19:54:08.835Z,11.60
2023-05-02T19:56:37.870Z,14.63
2023-05-02T19:59:06.960Z,14.23
2023-05-02T20:01:40.107Z,15.00
2023-05-02T20:04:09.113Z,14.10
2023-05-02T20:06:38.100Z,14.03
2023-05-02T20:09:07.299Z,12.50
2023-05-02T20:11:35.738Z,11.60
2023-05-02T20:14:05.050Z,11.80
2023-05-02T20:16:33.977Z,12.47
2023-05-02T20:19:04.743Z,12.43
2023-05-02T20:21:33.861Z,13.87
2023-05-02T20:24:02.828Z,17.10
2023-05-02T20:26:34.056Z,16.27
2023-05-02T20:29:03.778Z,13.73
2023-05-02T20:31:33.336Z,16.30
2023-05-02T20:34:03.719Z,14.23
2023-05-02T20:36:32.523Z,13.57
2023-05-02T20:39:01.353Z,12.90
2023-05-02T20:41:32.510Z,11.53
2023-05-02T20:44:02.902Z,12.90
2023-05-02T20:46:31.695Z,12.70
2023-05-02T20:49:00.723Z,10.80
2023-05-02T20:51:31.519Z,12.33
2023-05-02T20:54:00.664Z,10.67
2023-05-02T20:56:29.352Z,10.77
2023-05-02T20:58:58.183Z,9.17
2023-05-02T21:01:27.333Z,10.27
2023-05-02T21:03:57.454Z,8.80
2023-05-02T21:06:26.462Z,8.83
2023-05-02T21:08:56.828Z,10.17
2023-05-02T21:11:26.603Z,8.63
2023-05-02T21:13:55.706Z,9.40
2023-05-02T21:16:24.524Z,9.20
2023-05-02T21:18:55.140Z,8.90
2023-05-02T21:21:25.142Z,9.63
2023-05-02T21:23:53.893Z,8.93
2023-05-02T21:26:24.083Z,9.20
2023-05-02T21:28:53.401Z,8.20
2023-05-02T21:31:22.600Z,9.20
2023-05-02T21:33:51.071Z,8.70
2023-05-02T21:36:20.087Z,8.90
2023-05-02T21:38:49.287Z,8.90
2023-05-02T21:41:21.171Z,10.80
2023-05-02T21:43:52.238Z,10.77
2023-05-02T21:46:21.070Z,9.60
2023-05-02T21:48:49.788Z,11.50
2023-05-02T21:51:18.564Z,10.77
2023-05-02T21:53:47.338Z,9.73
2023-05-02T21:56:16.287Z,10.27
2023-05-02T21:58:48.051Z,7.90
2023-05-02T22:01:18.329Z,10.07
2023-05-02T22:03:47.201Z,9.67
2023-05-02T22:06:15.924Z,8.57
2023-05-02T22:08:44.933Z,9.47
2023-05-02T22:11:15.664Z,7.20
2023-05-02T22:13:47.533Z,8.13
2023-05-02T22:16:19.077Z,8.50
2023-05-02T22:18:49.763Z,8.30
2023-05-02T22:21:19.236Z,8.73
2023-05-02T22:23:48.638Z,8.40
2023-05-02T22:26:17.696Z,8.30
2023-05-02T22:28:46.068Z,8.13
2023-05-02T22:31:15.827Z,7.10
2023-05-02T22:33:49.820Z,8.60
2023-05-02T22:36:43.925Z,7.50
2023-05-02T22:39:15.894Z,7.30
2023-05-02T22:41:45.052Z,8.60
2023-05-02T22:44:13.979Z,10.57
2023-05-02T22:46:43.273Z,8.10
2023-05-02T22:49:13.975Z,8.00
2023-05-02T22:51:43.107Z,7.57
2023-05-02T22:54:11.952Z,7.50
2023-05-02T22:56:41.004Z,8.43
2023-05-02T22:59:10.903Z,8.13
2023-05-02T23:01:39.659Z,6.33
2023-05-02T23:04:09.494Z,6.40
2023-05-02T23:06:40.166Z,8.03
2023-05-02T23:09:09.490Z,7.80
2023-05-02T23:11:38.384Z,8.00
2023-05-02T23:14:07.202Z,7.10
2023-05-02T23:16:36.781Z,7.07
2023-05-02T23:19:05.444Z,7.13
2023-05-02T23:21:34.009Z,7.43
2023-05-02T23:24:04.252Z,7.90
2023-05-02T23:26:33.644Z,7.60
2023-05-02T23:29:02.918Z,8.03
2023-05-02T23:31:31.895Z,7.27
2023-05-02T23:34:01.616Z,7.13
2023-05-02T23:36:32.302Z,8.50
2023-05-02T23:39:05.158Z,7.20
2023-05-02T23:41:34.604Z,6.90
2023-05-02T23:44:03.226Z,6.93
2023-05-02T23:46:32.212Z,7.53
2023-05-02T23:49:00.989Z,7.00
2023-05-02T23:51:32.177Z,8.40
2023-05-02T23:54:01.673Z,7.43
2023-05-02T23:56:32.730Z,7.40
2023-05-02T23:59:01.594Z,7.17
